sensor_id;sensor_type;location;lat;lon;timestamp;temperature;humidity
18067;DHT22;9158;51.528;7.192;2023-09-18T00:00:13;19.30;1.00
18067;DHT22;9158;51.528;7.192;2023-09-18T00:00:44;19.30;1.00
18067;DHT22;9158;51.528;7.192;2023-09-18T00:01:15;19.20;9.10
18067;DHT22;9158;51.528;7.192;2023-09-18T00:01:50;19.20;27.20
18067;DHT22;9158;51.528;7.192;2023-09-18T00:02:21;19.20;32.20
18067;DHT22;9158;51.528;7.192;2023-09-18T00:02:52;19.20;50.30
18067;DHT22;9158;51.528;7.192;2023-09-18T00:03:23;19.30;67.60
18067;DHT22;9158;51.528;7.192;2023-09-18T00:03:55;19.30;23.50
18067;DHT22;9158;51.528;7.192;2023-09-18T00:04:26;19.30;23.60
18067;DHT22;9158;51.528;7.192;2023-09-18T00:04:57;19.30;6.20
18067;DHT22;9158;51.528;7.192;2023-09-18T00:05:29;19.30;5.30
18067;DHT22;9158;51.528;7.192;2023-09-18T00:06:03;19.30;7.40
18067;DHT22;9158;51.528;7.192;2023-09-18T00:06:33;19.30;27.90
18067;DHT22;9158;51.528;7.192;2023-09-18T00:07:05;19.30;5.40
18067;DHT22;9158;51.528;7.192;2023-09-18T00:07:35;19.30;1.80
18067;DHT22;9158;51.528;7.192;2023-09-18T00:08:08;19.30;7.60
18067;DHT22;9158;51.528;7.192;2023-09-18T00:08:39;19.30;1.00
18067;DHT22;9158;51.528;7.192;2023-09-18T00:09:10;19.40;1.00
18067;DHT22;9158;51.528;7.192;2023-09-18T00:09:44;19.40;1.00
18067;DHT22;9158;51.528;7.192;2023-09-18T00:10:16;19.40;1.00
18067;DHT22;9158;51.528;7.192;2023-09-18T00:10:47;19.40;1.00
18067;DHT22;9158;51.528;7.192;2023-09-18T00:11:19;19.40;1.00
18067;DHT22;9158;51.528;7.192;2023-09-18T00:11:50;19.40;1.00
18067;DHT22;9158;51.528;7.192;2023-09-18T00:12:23;19.40;1.00
18067;DHT22;9158;51.528;7.192;2023-09-18T00:12:55;19.40;1.00
18067;DHT22;9158;51.528;7.192;2023-09-18T00:13:26;19.40;1.00
18067;DHT22;9158;51.528;7.192;2023-09-18T00:13:57;19.40;1.00
18067;DHT22;9158;51.528;7.192;2023-09-18T00:14:28;19.40;1.00
18067;DHT22;9158;51.528;7.192;2023-09-18T00:15:00;19.40;1.00
18067;DHT22;9158;51.528;7.192;2023-09-18T00:15:31;19.40;1.00
18067;DHT22;9158;51.528;7.192;2023-09-18T00:16:02;19.40;1.00
18067;DHT22;9158;51.528;7.192;2023-09-18T00:16:34;19.40;1.00
18067;DHT22;9158;51.528;7.192;2023-09-18T00:17:06;19.40;1.00
18067;DHT22;9158;51.528;7.192;2023-09-18T00:17:37;19.40;1.00
18067;DHT22;9158;51.528;7.192;2023-09-18T00:18:08;19.40;1.00
18067;DHT22;9158;51.528;7.192;2023-09-18T00:18:39;19.40;1.00
18067;DHT22;9158;51.528;7.192;2023-09-18T00:19:11;19.40;1.00
18067;DHT22;9158;51.528;7.192;2023-09-18T00:19:42;19.40;1.00
18067;DHT22;9158;51.528;7.192;2023-09-18T00:20:13;19.40;1.00
18067;DHT22;9158;51.528;7.192;2023-09-18T00:20:44;19.40;1.00
18067;DHT22;9158;51.528;7.192;2023-09-18T00:21:21;19.30;1.00
18067;DHT22;9158;51.528;7.192;2023-09-18T00:21:52;19.40;1.00
18067;DHT22;9158;51.528;7.192;2023-09-18T00:22:23;19.40;27.90
18067;DHT22;9158;51.528;7.192;2023-09-18T00:22:55;19.40;1.00
18067;DHT22;9158;51.528;7.192;2023-09-18T00:23:27;19.40;12.20
18067;DHT22;9158;51.528;7.192;2023-09-18T00:23:58;19.40;28.90
18067;DHT22;9158;51.528;7.192;2023-09-18T00:24:29;19.40;1.00
18067;DHT22;9158;51.528;7.192;2023-09-18T00:25:00;19.40;1.00
18067;DHT22;9158;51.528;7.192;2023-09-18T00:25:33;19.40;1.00
18067;DHT22;9158;51.528;7.192;2023-09-18T00:26:04;19.40;1.00
18067;DHT22;9158;51.528;7.192;2023-09-18T00:26:35;19.40;1.00
18067;DHT22;9158;51.528;7.192;2023-09-18T00:27:06;19.40;1.00
18067;DHT22;9158;51.528;7.192;2023-09-18T00:27:38;19.30;1.00
18067;DHT22;9158;51.528;7.192;2023-09-18T00:28:09;19.30;1.00
18067;DHT22;9158;51.528;7.192;2023-09-18T00:28:40;19.30;8.70
18067;DHT22;9158;51.528;7.192;2023-09-18T00:29:11;19.30;1.00
18067;DHT22;9158;51.528;7.192;2023-09-18T00:29:42;19.30;1.00
18067;DHT22;9158;51.528;7.192;2023-09-18T00:30:15;19.30;1.00
18067;DHT22;9158;51.528;7.192;2023-09-18T00:30:48;19.30;1.00
18067;DHT22;9158;51.528;7.192;2023-09-18T00:31:20;19.30;1.00
18067;DHT22;9158;51.528;7.192;2023-09-18T00:31:52;19.30;1.00
18067;DHT22;9158;51.528;7.192;2023-09-18T00:32:24;19.30;1.00
18067;DHT22;9158;51.528;7.192;2023-09-18T00:32:55;19.20;1.00
18067;DHT22;9158;51.528;7.192;2023-09-18T00:33:26;19.20;1.00
18067;DHT22;9158;51.528;7.192;2023-09-18T00:33:56;19.20;1.00
18067;DHT22;9158;51.528;7.192;2023-09-18T00:34:29;19.20;1.00
18067;DHT22;9158;51.528;7.192;2023-09-18T00:35:00;19.20;1.00
18067;DHT22;9158;51.528;7.192;2023-09-18T00:35:31;19.20;1.00
18067;DHT22;9158;51.528;7.192;2023-09-18T00:36:02;19.20;1.00
18067;DHT22;9158;51.528;7.192;2023-09-18T00:36:36;19.20;1.00
18067;DHT22;9158;51.528;7.192;2023-09-18T00:37:07;19.20;1.00
18067;DHT22;9158;51.528;7.192;2023-09-18T00:37:38;19.20;1.00
18067;DHT22;9158;51.528;7.192;2023-09-18T00:38:10;19.20;1.00
18067;DHT22;9158;51.528;7.192;2023-09-18T00:38:42;19.20;13.80
18067;DHT22;9158;51.528;7.192;2023-09-18T00:39:13;19.20;1.00
18067;DHT22;9158;51.528;7.192;2023-09-18T00:39:45;19.20;45.30
18067;DHT22;9158;51.528;7.192;2023-09-18T00:40:16;19.10;95.10
18067;DHT22;9158;51.528;7.192;2023-09-18T00:40:48;19.20;22.90
18067;DHT22;9158;51.528;7.192;2023-09-18T00:41:19;19.20;29.20
18067;DHT22;9158;51.528;7.192;2023-09-18T00:41:50;19.20;6.60
18067;DHT22;9158;51.528;7.192;2023-09-18T00:42:25;19.20;8.40
18067;DHT22;9158;51.528;7.192;2023-09-18T00:42:58;19.20;16.10
18067;DHT22;9158;51.528;7.192;2023-09-18T00:43:28;19.20;1.10
18067;DHT22;9158;51.528;7.192;2023-09-18T00:43:59;19.20;35.40
18067;DHT22;9158;51.528;7.192;2023-09-18T00:44:30;19.20;35.20
18067;DHT22;9158;51.528;7.192;2023-09-18T00:45:03;19.10;1.00
18067;DHT22;9158;51.528;7.192;2023-09-18T00:45:35;19.10;1.00
18067;DHT22;9158;51.528;7.192;2023-09-18T00:46:08;19.10;7.40
18067;DHT22;9158;51.528;7.192;2023-09-18T00:46:39;19.10;1.00
18067;DHT22;9158;51.528;7.192;2023-09-18T00:47:12;19.10;9.70
18067;DHT22;9158;51.528;7.192;2023-09-18T00:47:44;19.10;6.80
18067;DHT22;9158;51.528;7.192;2023-09-18T00:48:16;19.10;13.70
18067;DHT22;9158;51.528;7.192;2023-09-18T00:48:47;19.10;6.40
18067;DHT22;9158;51.528;7.192;2023-09-18T00:49:19;19.10;26.60
18067;DHT22;9158;51.528;7.192;2023-09-18T00:49:52;19.00;16.80
18067;DHT22;9158;51.528;7.192;2023-09-18T00:50:24;19.00;38.80
18067;DHT22;9158;51.528;7.192;2023-09-18T00:50:55;19.00;26.70
18067;DHT22;9158;51.528;7.192;2023-09-18T00:51:28;18.90;40.90
18067;DHT22;9158;51.528;7.192;2023-09-18T00:52:01;19.00;39.90
18067;DHT22;9158;51.528;7.192;2023-09-18T00:52:32;19.00;30.50
18067;DHT22;9158;51.528;7.192;2023-09-18T00:53:04;19.00;64.80
18067;DHT22;9158;51.528;7.192;2023-09-18T00:53:38;19.00;58.80
18067;DHT22;9158;51.528;7.192;2023-09-18T00:54:10;19.00;78.70
18067;DHT22;9158;51.528;7.192;2023-09-18T00:54:42;19.00;99.90
18067;DHT22;9158;51.528;7.192;2023-09-18T00:55:14;19.00;99.90
18067;DHT22;9158;51.528;7.192;2023-09-18T00:55:46;18.90;73.90
18067;DHT22;9158;51.528;7.192;2023-09-18T00:56:18;18.90;99.90
18067;DHT22;9158;51.528;7.192;2023-09-18T00:56:52;18.90;99.40
18067;DHT22;9158;51.528;7.192;2023-09-18T00:57:24;18.90;99.90
18067;DHT22;9158;51.528;7.192;2023-09-18T00:57:56;18.90;99.90
18067;DHT22;9158;51.528;7.192;2023-09-18T00:58:27;18.90;93.10
18067;DHT22;9158;51.528;7.192;2023-09-18T00:58:59;18.90;91.00
18067;DHT22;9158;51.528;7.192;2023-09-18T00:59:30;18.90;93.10
18067;DHT22;9158;51.528;7.192;2023-09-18T01:00:04;18.90;90.80
18067;DHT22;9158;51.528;7.192;2023-09-18T01:00:37;18.90;99.90
18067;DHT22;9158;51.528;7.192;2023-09-18T01:01:10;18.90;99.90
18067;DHT22;9158;51.528;7.192;2023-09-18T01:01:42;18.90;99.90
18067;DHT22;9158;51.528;7.192;2023-09-18T01:02:15;18.90;99.90
18067;DHT22;9158;51.528;7.192;2023-09-18T01:02:46;18.90;99.90
18067;DHT22;9158;51.528;7.192;2023-09-18T01:03:18;18.90;99.90
18067;DHT22;9158;51.528;7.192;2023-09-18T01:03:50;18.90;99.90
18067;DHT22;9158;51.528;7.192;2023-09-18T01:04:25;18.90;99.90
18067;DHT22;9158;51.528;7.192;2023-09-18T01:04:57;18.90;99.90
18067;DHT22;9158;51.528;7.192;2023-09-18T01:05:29;18.90;99.90
18067;DHT22;9158;51.528;7.192;2023-09-18T01:06:02;18.90;99.90
18067;DHT22;9158;51.528;7.192;2023-09-18T01:06:34;18.90;99.90
18067;DHT22;9158;51.528;7.192;2023-09-18T01:07:06;18.90;99.90
18067;DHT22;9158;51.528;7.192;2023-09-18T01:07:37;18.90;99.90
18067;DHT22;9158;51.528;7.192;2023-09-18T01:08:08;18.90;99.90
18067;DHT22;9158;51.528;7.192;2023-09-18T01:08:40;18.90;99.90
18067;DHT22;9158;51.528;7.192;2023-09-18T01:09:11;18.90;99.90
18067;DHT22;9158;51.528;7.192;2023-09-18T01:09:42;18.90;99.90
18067;DHT22;9158;51.528;7.192;2023-09-18T01:10:15;18.90;99.90
18067;DHT22;9158;51.528;7.192;2023-09-18T01:10:56;18.90;99.90
18067;DHT22;9158;51.528;7.192;2023-09-18T01:11:42;18.90;99.90
18067;DHT22;9158;51.528;7.192;2023-09-18T01:12:19;18.90;99.90
18067;DHT22;9158;51.528;7.192;2023-09-18T01:12:56;18.90;99.90
18067;DHT22;9158;51.528;7.192;2023-09-18T01:13:37;18.90;99.90
18067;DHT22;9158;51.528;7.192;2023-09-18T01:14:12;18.90;99.90
18067;DHT22;9158;51.528;7.192;2023-09-18T01:14:53;18.80;99.90
18067;DHT22;9158;51.528;7.192;2023-09-18T01:15:30;18.80;99.90
18067;DHT22;9158;51.528;7.192;2023-09-18T01:16:07;18.80;99.90
18067;DHT22;9158;51.528;7.192;2023-09-18T01:16:44;18.80;99.90
18067;DHT22;9158;51.528;7.192;2023-09-18T01:17:21;18.80;99.90
18067;DHT22;9158;51.528;7.192;2023-09-18T01:17:53;18.80;99.90
18067;DHT22;9158;51.528;7.192;2023-09-18T01:18:25;18.80;99.90
18067;DHT22;9158;51.528;7.192;2023-09-18T01:18:56;18.80;99.90
18067;DHT22;9158;51.528;7.192;2023-09-18T01:19:37;18.80;99.90
18067;DHT22;9158;51.528;7.192;2023-09-18T01:20:10;18.80;99.90
18067;DHT22;9158;51.528;7.192;2023-09-18T01:20:43;18.80;99.90
18067;DHT22;9158;51.528;7.192;2023-09-18T01:21:14;18.80;99.90
18067;DHT22;9158;51.528;7.192;2023-09-18T01:21:45;18.80;99.90
18067;DHT22;9158;51.528;7.192;2023-09-18T01:22:19;18.80;99.90
18067;DHT22;9158;51.528;7.192;2023-09-18T01:22:53;18.80;99.90
18067;DHT22;9158;51.528;7.192;2023-09-18T01:23:25;18.80;99.90
18067;DHT22;9158;51.528;7.192;2023-09-18T01:23:56;19.90;99.90
18067;DHT22;9158;51.528;7.192;2023-09-18T01:24:27;18.80;99.90
18067;DHT22;9158;51.528;7.192;2023-09-18T01:25:00;18.80;99.90
18067;DHT22;9158;51.528;7.192;2023-09-18T01:25:31;19.70;99.90
18067;DHT22;9158;51.528;7.192;2023-09-18T01:26:04;18.80;99.90
18067;DHT22;9158;51.528;7.192;2023-09-18T01:26:35;18.80;99.90
18067;DHT22;9158;51.528;7.192;2023-09-18T01:27:08;18.80;99.90
18067;DHT22;9158;51.528;7.192;2023-09-18T01:27:40;18.80;99.90
18067;DHT22;9158;51.528;7.192;2023-09-18T01:28:11;18.80;99.90
18067;DHT22;9158;51.528;7.192;2023-09-18T01:28:42;18.80;99.90
18067;DHT22;9158;51.528;7.192;2023-09-18T01:29:13;18.80;99.90
18067;DHT22;9158;51.528;7.192;2023-09-18T01:29:44;18.80;99.90
18067;DHT22;9158;51.528;7.192;2023-09-18T01:30:16;18.80;99.90
18067;DHT22;9158;51.528;7.192;2023-09-18T01:30:48;18.80;99.90
18067;DHT22;9158;51.528;7.192;2023-09-18T01:31:19;18.80;99.90
18067;DHT22;9158;51.528;7.192;2023-09-18T01:31:50;18.80;99.90
18067;DHT22;9158;51.528;7.192;2023-09-18T01:32:25;18.80;99.90
18067;DHT22;9158;51.528;7.192;2023-09-18T01:32:59;18.80;99.90
18067;DHT22;9158;51.528;7.192;2023-09-18T01:33:31;18.80;99.90
18067;DHT22;9158;51.528;7.192;2023-09-18T01:34:03;18.80;99.90
18067;DHT22;9158;51.528;7.192;2023-09-18T01:34:37;18.90;99.90
18067;DHT22;9158;51.528;7.192;2023-09-18T01:35:10;18.90;99.90
18067;DHT22;9158;51.528;7.192;2023-09-18T01:35:44;18.90;99.90
18067;DHT22;9158;51.528;7.192;2023-09-18T01:36:16;18.90;99.90
18067;DHT22;9158;51.528;7.192;2023-09-18T01:36:49;18.90;99.90
18067;DHT22;9158;51.528;7.192;2023-09-18T01:37:23;18.90;99.90
18067;DHT22;9158;51.528;7.192;2023-09-18T01:37:57;18.90;99.90
18067;DHT22;9158;51.528;7.192;2023-09-18T01:38:29;18.90;99.90
18067;DHT22;9158;51.528;7.192;2023-09-18T01:39:01;18.90;99.90
18067;DHT22;9158;51.528;7.192;2023-09-18T01:39:34;19.00;99.90
18067;DHT22;9158;51.528;7.192;2023-09-18T01:40:06;18.90;99.90
18067;DHT22;9158;51.528;7.192;2023-09-18T01:40:38;18.90;99.90
18067;DHT22;9158;51.528;7.192;2023-09-18T01:41:10;18.90;99.90
18067;DHT22;9158;51.528;7.192;2023-09-18T01:41:42;18.90;99.90
18067;DHT22;9158;51.528;7.192;2023-09-18T01:42:13;18.90;99.90
18067;DHT22;9158;51.528;7.192;2023-09-18T01:42:46;18.90;99.90
18067;DHT22;9158;51.528;7.192;2023-09-18T01:43:18;18.90;99.90
18067;DHT22;9158;51.528;7.192;2023-09-18T01:43:49;18.90;99.90
18067;DHT22;9158;51.528;7.192;2023-09-18T01:44:19;18.90;99.90
18067;DHT22;9158;51.528;7.192;2023-09-18T01:44:52;18.90;99.90
18067;DHT22;9158;51.528;7.192;2023-09-18T01:45:24;18.90;99.90
18067;DHT22;9158;51.528;7.192;2023-09-18T01:46:01;18.90;99.90
18067;DHT22;9158;51.528;7.192;2023-09-18T01:46:34;18.90;99.90
18067;DHT22;9158;51.528;7.192;2023-09-18T01:47:08;18.90;99.90
18067;DHT22;9158;51.528;7.192;2023-09-18T01:47:41;18.90;99.90
18067;DHT22;9158;51.528;7.192;2023-09-18T01:48:12;18.90;99.90
18067;DHT22;9158;51.528;7.192;2023-09-18T01:48:46;18.90;99.90
18067;DHT22;9158;51.528;7.192;2023-09-18T01:49:20;18.90;99.90
18067;DHT22;9158;51.528;7.192;2023-09-18T01:49:57;18.90;99.90
18067;DHT22;9158;51.528;7.192;2023-09-18T01:50:28;18.90;99.90
18067;DHT22;9158;51.528;7.192;2023-09-18T01:50:59;18.90;99.90
18067;DHT22;9158;51.528;7.192;2023-09-18T01:51:31;18.90;99.90
18067;DHT22;9158;51.528;7.192;2023-09-18T01:52:04;18.90;99.90
18067;DHT22;9158;51.528;7.192;2023-09-18T01:52:35;18.90;99.90
18067;DHT22;9158;51.528;7.192;2023-09-18T01:53:08;18.90;99.90
18067;DHT22;9158;51.528;7.192;2023-09-18T01:53:39;18.90;99.90
18067;DHT22;9158;51.528;7.192;2023-09-18T01:54:11;18.90;99.90
18067;DHT22;9158;51.528;7.192;2023-09-18T01:54:42;19.00;99.90
18067;DHT22;9158;51.528;7.192;2023-09-18T01:55:13;19.00;99.90
18067;DHT22;9158;51.528;7.192;2023-09-18T01:55:45;19.00;99.90
18067;DHT22;9158;51.528;7.192;2023-09-18T01:56:16;19.00;99.90
18067;DHT22;9158;51.528;7.192;2023-09-18T01:56:47;19.10;99.90
18067;DHT22;9158;51.528;7.192;2023-09-18T01:57:18;18.10;99.90
18067;DHT22;9158;51.528;7.192;2023-09-18T01:57:50;19.10;99.90
18067;DHT22;9158;51.528;7.192;2023-09-18T01:58:21;19.10;99.90
18067;DHT22;9158;51.528;7.192;2023-09-18T01:58:52;19.20;99.50
18067;DHT22;9158;51.528;7.192;2023-09-18T01:59:23;19.20;96.60
18067;DHT22;9158;51.528;7.192;2023-09-18T01:59:55;19.20;58.30
18067;DHT22;9158;51.528;7.192;2023-09-18T02:00:28;19.10;40.80
18067;DHT22;9158;51.528;7.192;2023-09-18T02:01:00;19.10;32.80
18067;DHT22;9158;51.528;7.192;2023-09-18T02:01:31;19.10;39.60
18067;DHT22;9158;51.528;7.192;2023-09-18T02:02:04;19.10;45.90
18067;DHT22;9158;51.528;7.192;2023-09-18T02:02:38;19.10;42.30
18067;DHT22;9158;51.528;7.192;2023-09-18T02:03:09;19.10;29.90
18067;DHT22;9158;51.528;7.192;2023-09-18T02:04:12;19.10;33.30
18067;DHT22;9158;51.528;7.192;2023-09-18T02:04:43;19.10;20.30
18067;DHT22;9158;51.528;7.192;2023-09-18T02:05:16;19.10;1.00
18067;DHT22;9158;51.528;7.192;2023-09-18T02:05:48;19.10;1.00
18067;DHT22;9158;51.528;7.192;2023-09-18T02:06:19;19.10;1.00
18067;DHT22;9158;51.528;7.192;2023-09-18T02:06:50;19.10;3.80
18067;DHT22;9158;51.528;7.192;2023-09-18T02:07:22;19.10;10.80
18067;DHT22;9158;51.528;7.192;2023-09-18T02:07:54;19.00;1.00
18067;DHT22;9158;51.528;7.192;2023-09-18T02:08:26;19.10;1.00
18067;DHT22;9158;51.528;7.192;2023-09-18T02:08:57;19.10;12.70
18067;DHT22;9158;51.528;7.192;2023-09-18T02:09:29;19.00;6.20
18067;DHT22;9158;51.528;7.192;2023-09-18T02:10:00;19.00;18.10
18067;DHT22;9158;51.528;7.192;2023-09-18T02:10:32;19.00;24.20
18067;DHT22;9158;51.528;7.192;2023-09-18T02:11:03;19.00;41.80
18067;DHT22;9158;51.528;7.192;2023-09-18T02:11:36;19.10;28.20
18067;DHT22;9158;51.528;7.192;2023-09-18T02:12:08;19.10;37.80
18067;DHT22;9158;51.528;7.192;2023-09-18T02:12:40;19.10;14.90
18067;DHT22;9158;51.528;7.192;2023-09-18T02:13:11;19.10;16.00
18067;DHT22;9158;51.528;7.192;2023-09-18T02:13:42;19.10;6.30
18067;DHT22;9158;51.528;7.192;2023-09-18T02:14:13;19.10;52.20
18067;DHT22;9158;51.528;7.192;2023-09-18T02:14:47;19.10;18.40
18067;DHT22;9158;51.528;7.192;2023-09-18T02:15:18;19.10;18.40
18067;DHT22;9158;51.528;7.192;2023-09-18T02:15:49;19.20;3.00
18067;DHT22;9158;51.528;7.192;2023-09-18T02:16:20;19.20;1.00
18067;DHT22;9158;51.528;7.192;2023-09-18T02:16:54;19.20;1.00
18067;DHT22;9158;51.528;7.192;2023-09-18T02:17:26;19.20;1.00
18067;DHT22;9158;51.528;7.192;2023-09-18T02:17:57;19.20;1.00
18067;DHT22;9158;51.528;7.192;2023-09-18T02:18:28;19.20;1.00
18067;DHT22;9158;51.528;7.192;2023-09-18T02:18:59;19.30;1.20
18067;DHT22;9158;51.528;7.192;2023-09-18T02:19:30;19.30;1.00
18067;DHT22;9158;51.528;7.192;2023-09-18T02:20:04;19.30;1.00
18067;DHT22;9158;51.528;7.192;2023-09-18T02:20:42;19.30;1.00
18067;DHT22;9158;51.528;7.192;2023-09-18T02:21:19;19.30;1.00
18067;DHT22;9158;51.528;7.192;2023-09-18T02:21:50;19.30;1.00
18067;DHT22;9158;51.528;7.192;2023-09-18T02:22:22;19.30;1.00
18067;DHT22;9158;51.528;7.192;2023-09-18T02:22:53;19.30;1.00
18067;DHT22;9158;51.528;7.192;2023-09-18T02:23:24;19.30;1.00
18067;DHT22;9158;51.528;7.192;2023-09-18T02:23:56;19.40;1.00
18067;DHT22;9158;51.528;7.192;2023-09-18T02:24:28;19.30;1.00
18067;DHT22;9158;51.528;7.192;2023-09-18T02:24:59;19.40;1.00
18067;DHT22;9158;51.528;7.192;2023-09-18T02:25:31;19.40;1.00
18067;DHT22;9158;51.528;7.192;2023-09-18T02:26:01;19.40;1.00
18067;DHT22;9158;51.528;7.192;2023-09-18T02:26:36;19.40;1.00
18067;DHT22;9158;51.528;7.192;2023-09-18T02:27:07;19.40;1.00
18067;DHT22;9158;51.528;7.192;2023-09-18T02:27:38;19.40;1.00
18067;DHT22;9158;51.528;7.192;2023-09-18T02:28:10;19.40;1.00
18067;DHT22;9158;51.528;7.192;2023-09-18T02:28:42;19.50;1.00
18067;DHT22;9158;51.528;7.192;2023-09-18T02:29:13;19.50;1.00
18067;DHT22;9158;51.528;7.192;2023-09-18T02:29:45;19.50;1.00
18067;DHT22;9158;51.528;7.192;2023-09-18T02:30:17;19.50;1.00
18067;DHT22;9158;51.528;7.192;2023-09-18T02:30:49;19.50;1.00
18067;DHT22;9158;51.528;7.192;2023-09-18T02:31:21;19.50;1.00
18067;DHT22;9158;51.528;7.192;2023-09-18T02:31:52;19.60;1.00
18067;DHT22;9158;51.528;7.192;2023-09-18T02:32:24;19.60;1.00
18067;DHT22;9158;51.528;7.192;2023-09-18T02:32:55;19.50;1.00
18067;DHT22;9158;51.528;7.192;2023-09-18T02:33:26;19.60;1.00
18067;DHT22;9158;51.528;7.192;2023-09-18T02:33:57;19.60;1.00
18067;DHT22;9158;51.528;7.192;2023-09-18T02:34:29;19.60;1.00
18067;DHT22;9158;51.528;7.192;2023-09-18T02:35:00;19.60;1.00
18067;DHT22;9158;51.528;7.192;2023-09-18T02:35:31;19.60;1.00
18067;DHT22;9158;51.528;7.192;2023-09-18T02:36:02;19.70;1.00
18067;DHT22;9158;51.528;7.192;2023-09-18T02:36:34;19.70;1.00
18067;DHT22;9158;51.528;7.192;2023-09-18T02:37:05;19.60;1.00
18067;DHT22;9158;51.528;7.192;2023-09-18T02:37:36;19.70;1.00
18067;DHT22;9158;51.528;7.192;2023-09-18T02:38:07;19.70;1.00
18067;DHT22;9158;51.528;7.192;2023-09-18T02:38:39;19.70;1.00
18067;DHT22;9158;51.528;7.192;2023-09-18T02:39:11;19.70;1.00
18067;DHT22;9158;51.528;7.192;2023-09-18T02:39:42;19.70;1.00
18067;DHT22;9158;51.528;7.192;2023-09-18T02:40:14;19.70;1.00
18067;DHT22;9158;51.528;7.192;2023-09-18T02:40:45;19.80;1.00
18067;DHT22;9158;51.528;7.192;2023-09-18T02:41:16;19.80;1.00
18067;DHT22;9158;51.528;7.192;2023-09-18T02:41:47;19.80;1.00
18067;DHT22;9158;51.528;7.192;2023-09-18T02:42:18;19.80;1.00
18067;DHT22;9158;51.528;7.192;2023-09-18T02:42:50;19.80;1.00
18067;DHT22;9158;51.528;7.192;2023-09-18T02:43:21;19.80;99.90
18067;DHT22;9158;51.528;7.192;2023-09-18T02:43:52;19.80;99.90
18067;DHT22;9158;51.528;7.192;2023-09-18T02:44:24;19.80;99.90
18067;DHT22;9158;51.528;7.192;2023-09-18T02:44:55;19.80;99.90
18067;DHT22;9158;51.528;7.192;2023-09-18T02:45:26;19.80;99.90
18067;DHT22;9158;51.528;7.192;2023-09-18T02:45:57;19.80;1.00
18067;DHT22;9158;51.528;7.192;2023-09-18T02:46:29;19.80;99.90
18067;DHT22;9158;51.528;7.192;2023-09-18T02:47:01;19.80;99.90
18067;DHT22;9158;51.528;7.192;2023-09-18T02:47:32;19.80;99.90
18067;DHT22;9158;51.528;7.192;2023-09-18T02:48:04;19.80;99.90
18067;DHT22;9158;51.528;7.192;2023-09-18T02:48:35;19.80;99.90
18067;DHT22;9158;51.528;7.192;2023-09-18T02:49:07;19.80;99.90
18067;DHT22;9158;51.528;7.192;2023-09-18T02:49:38;19.80;99.90
18067;DHT22;9158;51.528;7.192;2023-09-18T02:50:09;19.80;99.90
18067;DHT22;9158;51.528;7.192;2023-09-18T02:50:41;19.70;99.90
18067;DHT22;9158;51.528;7.192;2023-09-18T02:51:13;19.70;99.90
18067;DHT22;9158;51.528;7.192;2023-09-18T02:51:44;19.70;99.90
18067;DHT22;9158;51.528;7.192;2023-09-18T02:52:15;19.70;99.90
18067;DHT22;9158;51.528;7.192;2023-09-18T02:52:47;19.70;1.00
18067;DHT22;9158;51.528;7.192;2023-09-18T02:53:20;19.70;1.00
18067;DHT22;9158;51.528;7.192;2023-09-18T02:53:51;19.60;99.90
18067;DHT22;9158;51.528;7.192;2023-09-18T02:54:24;19.60;99.90
18067;DHT22;9158;51.528;7.192;2023-09-18T02:54:56;19.60;99.90
18067;DHT22;9158;51.528;7.192;2023-09-18T02:55:27;19.60;99.90
18067;DHT22;9158;51.528;7.192;2023-09-18T02:55:59;19.60;99.90
18067;DHT22;9158;51.528;7.192;2023-09-18T02:56:31;19.60;99.90
18067;DHT22;9158;51.528;7.192;2023-09-18T02:57:03;19.60;99.90
18067;DHT22;9158;51.528;7.192;2023-09-18T02:57:35;19.60;1.00
18067;DHT22;9158;51.528;7.192;2023-09-18T02:58:06;19.60;1.00
18067;DHT22;9158;51.528;7.192;2023-09-18T02:58:39;19.60;1.00
18067;DHT22;9158;51.528;7.192;2023-09-18T02:59:12;19.60;1.00
18067;DHT22;9158;51.528;7.192;2023-09-18T02:59:43;19.60;1.00
18067;DHT22;9158;51.528;7.192;2023-09-18T03:00:14;19.50;1.00
18067;DHT22;9158;51.528;7.192;2023-09-18T03:00:47;19.50;1.00
18067;DHT22;9158;51.528;7.192;2023-09-18T03:01:18;19.50;1.00
18067;DHT22;9158;51.528;7.192;2023-09-18T03:01:49;19.50;1.00
18067;DHT22;9158;51.528;7.192;2023-09-18T03:02:21;19.50;1.00
18067;DHT22;9158;51.528;7.192;2023-09-18T03:02:52;19.50;1.00
18067;DHT22;9158;51.528;7.192;2023-09-18T03:03:23;19.50;1.00
18067;DHT22;9158;51.528;7.192;2023-09-18T03:03:56;19.50;1.00
18067;DHT22;9158;51.528;7.192;2023-09-18T03:04:29;19.50;1.00
18067;DHT22;9158;51.528;7.192;2023-09-18T03:05:00;19.50;1.00
18067;DHT22;9158;51.528;7.192;2023-09-18T03:05:31;19.50;1.00
18067;DHT22;9158;51.528;7.192;2023-09-18T03:06:03;19.50;1.00
18067;DHT22;9158;51.528;7.192;2023-09-18T03:06:38;19.50;1.00
18067;DHT22;9158;51.528;7.192;2023-09-18T03:07:09;19.50;1.00
18067;DHT22;9158;51.528;7.192;2023-09-18T03:07:43;19.50;1.00
18067;DHT22;9158;51.528;7.192;2023-09-18T03:08:15;19.50;1.00
18067;DHT22;9158;51.528;7.192;2023-09-18T03:08:47;19.50;1.00
18067;DHT22;9158;51.528;7.192;2023-09-18T03:09:19;19.60;1.00
18067;DHT22;9158;51.528;7.192;2023-09-18T03:09:51;19.60;1.00
18067;DHT22;9158;51.528;7.192;2023-09-18T03:10:22;19.60;1.00
18067;DHT22;9158;51.528;7.192;2023-09-18T03:10:54;19.60;1.00
18067;DHT22;9158;51.528;7.192;2023-09-18T03:11:27;19.60;1.00
18067;DHT22;9158;51.528;7.192;2023-09-18T03:11:59;19.50;99.90
18067;DHT22;9158;51.528;7.192;2023-09-18T03:12:30;19.60;99.90
18067;DHT22;9158;51.528;7.192;2023-09-18T03:13:03;19.60;99.90
18067;DHT22;9158;51.528;7.192;2023-09-18T03:13:34;19.60;99.90
18067;DHT22;9158;51.528;7.192;2023-09-18T03:14:05;19.60;99.90
18067;DHT22;9158;51.528;7.192;2023-09-18T03:14:37;19.60;99.90
18067;DHT22;9158;51.528;7.192;2023-09-18T03:15:09;19.70;99.90
18067;DHT22;9158;51.528;7.192;2023-09-18T03:15:45;19.70;99.90
18067;DHT22;9158;51.528;7.192;2023-09-18T03:16:16;19.70;99.90
18067;DHT22;9158;51.528;7.192;2023-09-18T03:16:49;19.80;99.90
18067;DHT22;9158;51.528;7.192;2023-09-18T03:17:21;19.80;99.90
18067;DHT22;9158;51.528;7.192;2023-09-18T03:17:52;19.80;99.90
18067;DHT22;9158;51.528;7.192;2023-09-18T03:18:23;19.80;99.90
18067;DHT22;9158;51.528;7.192;2023-09-18T03:18:54;19.90;99.90
18067;DHT22;9158;51.528;7.192;2023-09-18T03:19:26;19.90;79.40
18067;DHT22;9158;51.528;7.192;2023-09-18T03:19:58;19.90;42.50
18067;DHT22;9158;51.528;7.192;2023-09-18T03:20:29;19.90;1.00
18067;DHT22;9158;51.528;7.192;2023-09-18T03:21:00;19.90;1.00
18067;DHT22;9158;51.528;7.192;2023-09-18T03:21:32;19.90;1.00
18067;DHT22;9158;51.528;7.192;2023-09-18T03:22:06;20.00;25.30
18067;DHT22;9158;51.528;7.192;2023-09-18T03:22:37;20.00;1.00
18067;DHT22;9158;51.528;7.192;2023-09-18T03:23:08;20.00;1.00
18067;DHT22;9158;51.528;7.192;2023-09-18T03:23:39;20.00;1.00
18067;DHT22;9158;51.528;7.192;2023-09-18T03:24:10;20.10;1.00
18067;DHT22;9158;51.528;7.192;2023-09-18T03:24:41;20.10;99.90
18067;DHT22;9158;51.528;7.192;2023-09-18T03:25:15;20.20;99.90
18067;DHT22;9158;51.528;7.192;2023-09-18T03:25:46;20.20;99.90
18067;DHT22;9158;51.528;7.192;2023-09-18T03:26:18;20.30;99.90
18067;DHT22;9158;51.528;7.192;2023-09-18T03:26:50;20.30;99.90
18067;DHT22;9158;51.528;7.192;2023-09-18T03:27:21;20.40;99.90
18067;DHT22;9158;51.528;7.192;2023-09-18T03:27:54;20.40;99.90